Accueil
METAR-TAF:

METAR-TAF

Aéroports :

Coatesville, Pennsylvanie, États-Unis

latitude: 39-58-44N, longitude: 075-51-56W, altitude: 201 m

Observation

Le bulletin a été fait il y a 26 minutes, à 19:55 UTC
Vent 25 kt de ouest/nord-ouest avec des rafales jusqu'à 38 kt
Température 7°C
Humidité 42%
Pression 1002 hPa
Visibilité: 16.1 km
Nuages fragmentés à une hauteur de 5000 ft
Nuages fragmentés à une hauteur de 6500 ft

METAR: KMQS 101955Z AUTO 30025G38KT 10SM BKN050 BKN065 07/M05 A2960 RMK AO2

Heure: 16:21 (20:21 UTC)


TAF: absent

Observations et prévisions météorologiques de plus de 4000 aéroports (messages METAR et TAF).

Les stations disponibles sont représentées par des disques jaunes et rouges sur la carte.

Passer la souris dessus pour voir le nom de la station.

Cliquer dessus pour voir les observations et prévisions météorologiques.

Pour changer de carte: cliquez sur les boutons verts avec une croix noire pour zoomer, sur le bouton vert avec un tiret pour effectuer un zoom arrière, ou sur les flèches vertes pour les cartes adjacentes.


METAR-TAF: